createdAt,value
2018-03-24T00:01:21.064Z,66.31
2018-03-24T00:03:47.313Z,66.56
2018-03-24T00:06:13.591Z,66.54
2018-03-24T00:08:39.878Z,66.46
2018-03-24T00:11:06.145Z,66.48
2018-03-24T00:13:32.428Z,66.38
2018-03-24T00:15:58.699Z,66.54
2018-03-24T00:18:24.950Z,67.01
2018-03-24T00:20:51.193Z,67.18
2018-03-24T00:23:17.549Z,67.29
2018-03-24T00:25:43.800Z,67.39
2018-03-24T00:28:10.033Z,67.37
2018-03-24T00:30:36.342Z,67.02
2018-03-24T00:33:02.602Z,66.83
2018-03-24T00:35:28.836Z,66.96
2018-03-24T00:37:55.121Z,66.97
2018-03-24T00:40:21.377Z,67.08
2018-03-24T00:42:47.679Z,66.63
2018-03-24T00:45:13.979Z,66.55
2018-03-24T00:47:41.341Z,66.29
2018-03-24T00:50:07.698Z,66.53
2018-03-24T00:52:34.037Z,66.79
2018-03-24T00:55:00.297Z,67.04
2018-03-24T00:57:26.568Z,67.29
2018-03-24T00:59:52.901Z,67.25
2018-03-24T01:02:19.393Z,67.21
2018-03-24T01:04:45.632Z,67.28
2018-03-24T01:07:11.964Z,67.32
2018-03-24T01:09:38.221Z,67.41
2018-03-24T01:12:04.452Z,67.23
2018-03-24T01:14:30.736Z,66.90
2018-03-24T01:16:56.973Z,66.76
2018-03-24T01:19:23.211Z,66.70
2018-03-24T01:21:49.521Z,66.97
2018-03-24T01:24:15.793Z,66.76
2018-03-24T01:26:42.032Z,66.49
2018-03-24T01:29:08.321Z,66.72
2018-03-24T01:31:34.570Z,67.07
2018-03-24T01:34:00.817Z,67.05
2018-03-24T01:36:27.084Z,66.95
2018-03-24T01:38:53.349Z,67.09
2018-03-24T01:41:19.592Z,67.16
2018-03-24T01:43:45.866Z,67.16
2018-03-24T01:46:12.101Z,67.45
2018-03-24T01:48:38.464Z,67.48
2018-03-24T01:51:04.750Z,67.22
2018-03-24T01:53:43.033Z,66.87
2018-03-24T01:56:09.312Z,66.89
2018-03-24T01:58:35.578Z,66.96
2018-03-24T02:01:01.824Z,66.78
2018-03-24T02:03:28.177Z,67.16
2018-03-24T02:05:54.464Z,67.26
2018-03-24T02:08:20.700Z,67.48
2018-03-24T02:10:46.993Z,67.56
2018-03-24T02:13:13.256Z,67.40
2018-03-24T02:15:39.513Z,67.43
2018-03-24T02:18:05.785Z,67.39
2018-03-24T02:20:32.071Z,67.65
2018-03-24T02:22:59.405Z,67.37
2018-03-24T02:25:25.746Z,67.33
2018-03-24T02:27:52.014Z,67.04
2018-03-24T02:30:18.332Z,66.93
2018-03-24T02:32:44.614Z,66.89
2018-03-24T02:35:10.868Z,66.72
2018-03-24T02:37:37.137Z,66.74
2018-03-24T02:40:03.413Z,66.78
2018-03-24T02:42:29.656Z,66.75
2018-03-24T02:44:55.897Z,66.71
2018-03-24T02:47:22.208Z,66.56
2018-03-24T02:49:48.469Z,66.61
2018-03-24T02:52:14.743Z,66.67
2018-03-24T02:54:41.035Z,67.05
2018-03-24T02:57:07.278Z,67.28
2018-03-24T02:59:33.527Z,67.37
2018-03-24T03:01:59.806Z,67.49
2018-03-24T03:04:26.032Z,67.44
2018-03-24T03:06:52.307Z,67.24
2018-03-24T03:09:18.597Z,66.99
2018-03-24T03:11:44.898Z,67.05
2018-03-24T03:14:11.148Z,67.17
2018-03-24T03:16:37.482Z,67.28
2018-03-24T03:19:03.738Z,67.48
2018-03-24T03:24:30.784Z,67.33
2018-03-24T03:26:57.072Z,67.99
2018-03-24T03:29:23.325Z,67.74
2018-03-24T03:31:58.555Z,67.92
2018-03-24T03:34:24.805Z,67.88
2018-03-24T03:36:51.056Z,67.65
2018-03-24T03:39:17.399Z,67.71
2018-03-24T03:41:43.648Z,67.84
2018-03-24T03:44:09.949Z,67.56
2018-03-24T03:46:36.231Z,67.64
2018-03-24T03:49:02.517Z,68.02
2018-03-24T03:51:28.773Z,67.95
2018-03-24T03:53:55.063Z,68.14
2018-03-24T03:56:21.344Z,68.62
2018-03-24T03:58:47.593Z,68.36
2018-03-24T04:01:13.862Z,68.17
2018-03-24T04:03:40.106Z,68.05
2018-03-24T04:06:06.349Z,67.65
2018-03-24T04:08:32.661Z,67.44
2018-03-24T04:10:58.969Z,67.24
2018-03-24T04:13:25.293Z,67.37
2018-03-24T04:15:51.568Z,67.28
2018-03-24T04:18:17.828Z,67.26
2018-03-24T04:20:44.080Z,67.41
2018-03-24T04:23:10.354Z,67.33
2018-03-24T04:25:36.633Z,67.49
2018-03-24T04:28:02.917Z,67.43
2018-03-24T04:30:29.197Z,67.61
2018-03-24T04:32:55.444Z,67.50
2018-03-24T04:35:21.694Z,67.44
2018-03-24T04:37:47.993Z,67.55
2018-03-24T04:40:14.235Z,67.88
2018-03-24T04:42:40.497Z,67.82
2018-03-24T04:45:06.769Z,67.95
2018-03-24T04:47:33.028Z,67.78
2018-03-24T04:49:59.264Z,67.84
2018-03-24T04:52:25.601Z,67.75
2018-03-24T04:54:51.860Z,67.61
2018-03-24T04:57:18.104Z,67.65
2018-03-24T04:59:44.402Z,67.34
2018-03-24T05:02:10.746Z,67.48
2018-03-24T05:04:37.586Z,67.34
2018-03-24T05:07:03.874Z,67.40
2018-03-24T05:09:30.121Z,67.44
2018-03-24T05:11:56.365Z,67.27
2018-03-24T05:14:22.632Z,67.23
2018-03-24T05:16:48.916Z,67.24
2018-03-24T05:19:15.308Z,67.26
2018-03-24T05:21:41.611Z,67.19
2018-03-24T05:24:07.897Z,67.07
2018-03-24T05:26:34.143Z,67.20
2018-03-24T05:29:00.450Z,67.16
2018-03-24T05:31:26.697Z,67.14
2018-03-24T05:33:52.976Z,67.02
2018-03-24T05:36:19.253Z,67.07
2018-03-24T05:38:45.503Z,67.02
2018-03-24T05:41:11.753Z,66.99
2018-03-24T05:43:38.194Z,66.90
2018-03-24T05:46:04.453Z,66.75
2018-03-24T05:48:30.761Z,66.46
2018-03-24T05:50:57.001Z,66.30
2018-03-24T05:53:23.337Z,66.10
2018-03-24T05:55:49.596Z,65.94
2018-03-24T05:58:15.910Z,65.73
2018-03-24T06:00:42.149Z,65.42
2018-03-24T06:03:08.398Z,65.28
2018-03-24T06:05:34.669Z,64.92
2018-03-24T06:08:00.929Z,64.36
2018-03-24T06:10:27.197Z,64.01
2018-03-24T06:12:53.489Z,63.33
2018-03-24T06:15:19.758Z,62.89
2018-03-24T06:17:45.988Z,62.53
2018-03-24T06:20:12.317Z,61.82
2018-03-24T06:22:38.561Z,61.23
2018-03-24T06:25:04.800Z,60.69
2018-03-24T06:27:31.096Z,60.25
2018-03-24T06:29:57.388Z,59.91
2018-03-24T06:32:23.663Z,59.72
2018-03-24T06:34:50.018Z,59.55
2018-03-24T06:37:17.285Z,59.47
2018-03-24T06:39:43.544Z,58.64
2018-03-24T06:42:09.821Z,56.76
2018-03-24T06:44:36.043Z,55.79
2018-03-24T06:47:02.314Z,54.75
2018-03-24T06:49:28.577Z,54.04
2018-03-24T06:51:54.801Z,53.07
2018-03-24T06:54:21.043Z,52.44
2018-03-24T06:56:47.309Z,51.62
2018-03-24T06:59:13.552Z,50.86
2018-03-24T07:01:39.790Z,49.58
2018-03-24T07:04:06.074Z,49.36
2018-03-24T07:06:32.414Z,47.85
2018-03-24T07:08:58.661Z,47.34
2018-03-24T07:11:24.970Z,46.42
2018-03-24T07:13:51.209Z,45.60
2018-03-24T07:16:17.442Z,44.63
2018-03-24T07:18:43.736Z,44.29
2018-03-24T07:21:09.990Z,42.52
2018-03-24T07:23:36.249Z,42.89
2018-03-24T07:26:02.563Z,41.87
2018-03-24T07:28:28.828Z,41.57
2018-03-24T07:30:55.106Z,41.17
2018-03-24T07:33:21.439Z,40.45
2018-03-24T07:35:47.711Z,40.00
2018-03-24T07:38:13.979Z,38.96
2018-03-24T07:40:40.293Z,38.46
2018-03-24T07:43:08.774Z,37.13
2018-03-24T07:45:35.023Z,36.95
2018-03-24T07:48:01.294Z,35.58
2018-03-24T07:50:27.543Z,34.87
2018-03-24T07:52:53.814Z,33.77
2018-03-24T07:55:20.118Z,32.61
2018-03-24T07:57:46.373Z,31.12
2018-03-24T08:00:12.661Z,30.56
2018-03-24T08:02:38.977Z,29.46
2018-03-24T08:05:05.214Z,28.93
2018-03-24T08:07:31.452Z,27.37
2018-03-24T08:09:57.893Z,26.11
2018-03-24T08:12:24.209Z,25.40
2018-03-24T08:14:50.471Z,24.46
2018-03-24T08:17:16.763Z,23.70
2018-03-24T08:19:42.997Z,23.26
2018-03-24T08:22:09.243Z,23.66
2018-03-24T08:24:35.528Z,22.43
2018-03-24T08:27:01.829Z,21.79
2018-03-24T08:29:28.213Z,20.81
2018-03-24T08:31:54.532Z,20.55
2018-03-24T08:34:20.822Z,19.84
2018-03-24T08:36:47.189Z,19.71
2018-03-24T08:39:13.476Z,19.49
2018-03-24T08:41:39.723Z,19.19
2018-03-24T08:44:05.981Z,18.85
2018-03-24T08:46:32.298Z,18.95
2018-03-24T08:48:58.612Z,18.68
2018-03-24T08:51:24.889Z,18.72
2018-03-24T08:53:51.171Z,17.59
2018-03-24T08:56:17.416Z,17.84
2018-03-24T08:58:43.684Z,18.44
2018-03-24T09:01:09.960Z,18.57
2018-03-24T09:03:36.232Z,17.71
2018-03-24T09:06:02.499Z,17.71
2018-03-24T09:08:28.769Z,17.18
2018-03-24T09:10:55.089Z,16.12
2018-03-24T09:13:21.341Z,16.26
2018-03-24T09:15:47.932Z,17.07
2018-03-24T09:18:14.197Z,17.69
2018-03-24T09:20:40.442Z,17.46
2018-03-24T09:23:06.712Z,17.71
2018-03-24T09:25:32.956Z,17.07
2018-03-24T09:27:59.272Z,17.63
2018-03-24T09:30:25.548Z,16.90
2018-03-24T09:32:51.992Z,16.74
2018-03-24T09:35:18.271Z,17.05
2018-03-24T09:37:44.673Z,16.52
2018-03-24T09:40:10.965Z,16.90
2018-03-24T09:42:37.216Z,16.40
2018-03-24T09:45:03.554Z,15.90
2018-03-24T09:47:29.860Z,15.51
2018-03-24T09:49:56.140Z,15.91
2018-03-24T09:52:22.456Z,15.43
2018-03-24T09:54:48.729Z,15.71
2018-03-24T09:57:14.983Z,16.05
2018-03-24T09:59:41.257Z,15.20
2018-03-24T10:02:07.513Z,15.53
2018-03-24T10:04:33.736Z,15.47
2018-03-24T10:07:00.033Z,15.82
2018-03-24T10:09:26.257Z,15.08
2018-03-24T10:11:52.532Z,14.47
2018-03-24T10:14:18.806Z,15.30
2018-03-24T10:16:45.081Z,15.92
2018-03-24T10:19:11.358Z,16.05
2018-03-24T10:24:46.236Z,14.85
2018-03-24T10:27:12.565Z,15.08
2018-03-24T10:29:38.795Z,16.57
2018-03-24T10:32:05.057Z,18.50
2018-03-24T10:34:31.348Z,20.01
2018-03-24T10:36:57.604Z,20.80
2018-03-24T10:39:23.849Z,22.51
2018-03-24T10:41:50.121Z,23.02
2018-03-24T10:44:16.368Z,23.64
2018-03-24T10:46:42.642Z,23.55
2018-03-24T10:49:08.936Z,24.00
2018-03-24T10:51:35.192Z,23.97
2018-03-24T10:54:01.426Z,21.50
2018-03-24T10:56:27.698Z,20.75
2018-03-24T10:58:53.985Z,17.65
2018-03-24T11:01:25.063Z,16.08
2018-03-24T11:03:51.365Z,15.52
2018-03-24T11:06:17.654Z,15.29
2018-03-24T11:08:43.892Z,17.20
2018-03-24T11:11:10.158Z,18.07
2018-03-24T11:13:36.434Z,20.27
2018-03-24T11:16:02.722Z,21.07
2018-03-24T11:18:29.024Z,21.36
2018-03-24T11:20:55.378Z,19.56
2018-03-24T11:23:21.619Z,20.09
2018-03-24T11:25:47.894Z,21.18
2018-03-24T11:28:14.304Z,21.34
2018-03-24T11:30:40.567Z,22.71
2018-03-24T11:33:06.968Z,22.61
2018-03-24T11:35:33.410Z,20.69
2018-03-24T11:37:59.705Z,19.96
2018-03-24T11:40:26.116Z,20.62
2018-03-24T11:42:52.368Z,17.98
2018-03-24T11:45:18.664Z,16.82
2018-03-24T11:47:44.933Z,15.53
2018-03-24T11:50:11.220Z,13.17
2018-03-24T11:52:37.581Z,12.77
2018-03-24T11:55:03.873Z,12.54
2018-03-24T11:57:30.148Z,12.00
2018-03-24T11:59:56.433Z,12.02
2018-03-24T12:02:22.730Z,11.80
2018-03-24T12:04:48.978Z,11.41
2018-03-24T12:07:15.248Z,11.48
2018-03-24T12:09:41.581Z,11.67
2018-03-24T12:12:07.904Z,11.97
2018-03-24T12:14:34.143Z,12.86
2018-03-24T12:17:00.409Z,12.17
2018-03-24T12:19:26.742Z,11.65
2018-03-24T12:21:52.996Z,11.64
2018-03-24T12:24:19.276Z,11.04
2018-03-24T12:26:45.709Z,10.69
2018-03-24T12:29:12.004Z,10.77
2018-03-24T12:31:38.346Z,11.12
2018-03-24T12:34:04.602Z,11.79
2018-03-24T12:36:30.975Z,12.70
2018-03-24T12:38:57.248Z,14.52
2018-03-24T12:41:23.486Z,15.58
2018-03-24T12:43:49.712Z,16.78
2018-03-24T12:46:16.009Z,15.92
2018-03-24T12:48:42.324Z,13.92
2018-03-24T12:51:08.752Z,14.05
2018-03-24T12:53:35.193Z,15.98
2018-03-24T12:56:01.473Z,17.37
2018-03-24T12:58:27.718Z,18.27
2018-03-24T13:00:54.012Z,18.54
2018-03-24T13:03:20.258Z,19.15
2018-03-24T13:05:46.496Z,19.70
2018-03-24T13:08:12.772Z,19.75
2018-03-24T13:10:39.028Z,20.78
2018-03-24T13:13:05.318Z,20.65
2018-03-24T13:15:31.617Z,18.46
2018-03-24T13:17:57.893Z,16.56
2018-03-24T13:20:24.154Z,18.46
2018-03-24T13:22:50.428Z,17.83
2018-03-24T13:25:16.705Z,16.20
2018-03-24T13:27:43.065Z,14.45
2018-03-24T13:30:09.576Z,14.30
2018-03-24T13:32:35.860Z,13.48
2018-03-24T13:35:02.099Z,12.83
2018-03-24T13:37:28.364Z,12.74
2018-03-24T13:39:54.633Z,13.62
2018-03-24T13:42:20.874Z,16.42
2018-03-24T13:44:47.159Z,17.36
2018-03-24T13:47:13.437Z,18.19
2018-03-24T13:49:39.697Z,18.75
2018-03-24T13:52:05.980Z,16.81
2018-03-24T13:54:32.302Z,16.08
2018-03-24T13:56:58.540Z,15.94
2018-03-24T13:59:24.849Z,15.67
2018-03-24T14:01:51.089Z,14.65
2018-03-24T14:04:17.353Z,13.97
2018-03-24T14:06:43.688Z,14.22
2018-03-24T14:09:09.974Z,13.99
2018-03-24T14:11:36.244Z,14.19
2018-03-24T14:14:02.540Z,13.81
2018-03-24T14:16:28.788Z,13.93
2018-03-24T14:18:55.144Z,13.88
2018-03-24T14:21:21.420Z,13.74
2018-03-24T14:23:47.692Z,14.43
2018-03-24T14:26:13.936Z,14.32
2018-03-24T14:28:40.232Z,14.08
2018-03-24T14:31:06.489Z,13.49
2018-03-24T14:33:32.756Z,13.72
2018-03-24T14:35:59.017Z,13.73
2018-03-24T14:38:25.269Z,14.17
2018-03-24T14:40:51.516Z,14.56
2018-03-24T14:43:17.816Z,15.04
2018-03-24T14:45:44.061Z,15.20
2018-03-24T14:48:10.304Z,15.57
2018-03-24T14:50:36.592Z,15.64
2018-03-24T14:53:02.865Z,15.84
2018-03-24T14:55:29.106Z,15.47
2018-03-24T14:57:55.424Z,15.40
2018-03-24T15:00:21.660Z,15.68
2018-03-24T15:02:47.944Z,15.90
2018-03-24T15:05:14.257Z,16.06
2018-03-24T15:07:40.541Z,16.11
2018-03-24T15:10:06.818Z,16.61
2018-03-24T15:12:33.110Z,16.84
2018-03-24T15:14:59.337Z,16.81
2018-03-24T15:17:25.585Z,17.28
2018-03-24T15:19:51.852Z,17.38
2018-03-24T15:22:18.169Z,17.66
2018-03-24T15:24:44.401Z,17.67
2018-03-24T15:27:10.699Z,18.01
2018-03-24T15:29:49.096Z,18.16
2018-03-24T15:32:27.553Z,18.90
2018-03-24T15:35:05.937Z,19.10
2018-03-24T15:37:32.229Z,19.05
2018-03-24T15:39:58.502Z,19.15
2018-03-24T15:42:24.769Z,19.61
2018-03-24T15:44:51.055Z,19.88
2018-03-24T15:47:17.385Z,19.77
2018-03-24T15:49:43.641Z,19.58
2018-03-24T15:52:09.917Z,20.04
2018-03-24T15:54:36.167Z,20.48
2018-03-24T15:57:02.392Z,20.92
2018-03-24T15:59:28.674Z,21.26
2018-03-24T16:01:54.967Z,21.71
2018-03-24T16:04:21.205Z,22.38
2018-03-24T16:06:48.573Z,22.72
2018-03-24T16:09:14.846Z,22.90
2018-03-24T16:11:41.106Z,23.49
2018-03-24T16:14:07.457Z,24.99
2018-03-24T16:16:33.737Z,26.32
2018-03-24T16:18:59.988Z,27.50
2018-03-24T16:21:26.311Z,28.37
2018-03-24T16:23:52.530Z,29.25
2018-03-24T16:26:18.914Z,29.97
2018-03-24T16:28:45.226Z,30.75
2018-03-24T16:31:11.470Z,31.38
2018-03-24T16:33:37.696Z,31.76
2018-03-24T16:36:04.008Z,32.44
2018-03-24T16:38:30.313Z,32.66
2018-03-24T16:40:56.581Z,32.91
2018-03-24T16:43:22.850Z,33.11
2018-03-24T16:45:49.107Z,33.39
2018-03-24T16:48:15.350Z,33.69
2018-03-24T16:50:41.625Z,33.82
2018-03-24T16:53:07.893Z,34.08
2018-03-24T16:55:34.146Z,34.09
2018-03-24T16:58:00.412Z,34.08
2018-03-24T17:00:26.654Z,34.44
2018-03-24T17:02:52.998Z,34.71
2018-03-24T17:05:19.280Z,35.05
2018-03-24T17:07:45.522Z,35.10
2018-03-24T17:10:11.830Z,35.23
2018-03-24T17:12:38.089Z,35.27
2018-03-24T17:15:04.376Z,35.47
2018-03-24T17:17:30.663Z,35.71
2018-03-24T17:19:56.981Z,36.62
2018-03-24T17:22:23.224Z,37.08
2018-03-24T17:24:49.472Z,36.99
2018-03-24T17:27:15.744Z,37.07
2018-03-24T17:29:41.996Z,37.45
2018-03-24T17:32:08.237Z,37.54
2018-03-24T17:34:34.496Z,37.54
2018-03-24T17:37:00.746Z,37.50
2018-03-24T17:39:26.972Z,37.89
2018-03-24T17:41:53.266Z,38.19
2018-03-24T17:44:19.548Z,38.23
2018-03-24T17:46:45.816Z,37.83
2018-03-24T17:49:12.109Z,37.95
2018-03-24T17:51:38.342Z,38.15
2018-03-24T17:54:04.626Z,38.60
2018-03-24T17:56:30.934Z,38.94
2018-03-24T17:58:57.189Z,39.15
2018-03-24T18:01:23.428Z,39.57
2018-03-24T18:03:49.729Z,39.93
2018-03-24T18:06:16.005Z,39.95
2018-03-24T18:08:42.256Z,40.15
2018-03-24T18:11:08.573Z,39.89
2018-03-24T18:13:34.812Z,40.26
2018-03-24T18:16:01.053Z,40.64
2018-03-24T18:18:27.352Z,40.62
2018-03-24T18:20:53.806Z,41.24
2018-03-24T18:23:20.085Z,41.23
2018-03-24T18:25:46.364Z,40.91
2018-03-24T18:28:12.688Z,41.61
2018-03-24T18:30:38.926Z,41.37
2018-03-24T18:33:05.214Z,41.23
2018-03-24T18:35:31.476Z,41.65
2018-03-24T18:37:57.720Z,41.78
2018-03-24T18:40:24.025Z,42.10
2018-03-24T18:42:50.278Z,42.68
2018-03-24T18:45:16.513Z,41.98
2018-03-24T18:47:42.793Z,41.82
2018-03-24T18:50:09.033Z,41.67
2018-03-24T18:52:35.268Z,41.50
2018-03-24T18:55:01.649Z,41.74
2018-03-24T18:57:27.889Z,42.00
2018-03-24T18:59:54.210Z,42.16
2018-03-24T19:02:20.511Z,42.18
2018-03-24T19:04:46.784Z,42.54
2018-03-24T19:07:13.059Z,42.44
2018-03-24T19:09:39.345Z,42.64
2018-03-24T19:12:05.582Z,42.63
2018-03-24T19:14:31.887Z,42.99
2018-03-24T19:16:58.173Z,43.16
2018-03-24T19:19:24.445Z,43.16
2018-03-24T19:21:50.811Z,43.47
2018-03-24T19:24:17.085Z,43.34
2018-03-24T19:26:43.344Z,43.51
2018-03-24T19:29:09.592Z,43.74
2018-03-24T19:31:35.860Z,43.57
2018-03-24T19:34:02.276Z,43.64
2018-03-24T19:36:28.560Z,43.86
2018-03-24T19:38:54.892Z,44.06
2018-03-24T19:41:21.311Z,44.31
2018-03-24T19:43:47.557Z,44.43
2018-03-24T19:46:13.834Z,44.53
2018-03-24T19:48:40.070Z,44.55
2018-03-24T19:51:06.316Z,44.53
2018-03-24T19:53:32.645Z,44.55
2018-03-24T19:55:58.893Z,44.57
2018-03-24T19:58:25.148Z,44.59
2018-03-24T20:00:51.429Z,44.73
2018-03-24T20:03:17.686Z,44.79
2018-03-24T20:05:43.957Z,44.93
2018-03-24T20:08:10.272Z,45.01
2018-03-24T20:10:36.510Z,44.99
2018-03-24T20:13:02.756Z,44.91
2018-03-24T20:15:29.182Z,45.01
2018-03-24T20:17:55.423Z,44.95
2018-03-24T20:20:21.693Z,44.93
2018-03-24T20:22:47.952Z,45.07
2018-03-24T20:25:14.208Z,45.09
2018-03-24T20:27:40.428Z,45.07
2018-03-24T20:30:06.728Z,45.03
2018-03-24T20:32:32.988Z,45.00
2018-03-24T20:34:59.233Z,45.09
2018-03-24T20:37:25.497Z,45.43
2018-03-24T20:39:51.746Z,45.19
2018-03-24T20:42:18.037Z,45.27
2018-03-24T20:44:44.328Z,45.25
2018-03-24T20:47:10.561Z,45.04
2018-03-24T20:49:36.872Z,45.17
2018-03-24T20:52:03.147Z,45.28
2018-03-24T20:54:29.389Z,45.54
2018-03-24T20:56:55.630Z,45.56
2018-03-24T20:59:21.905Z,45.48
2018-03-24T21:01:48.146Z,45.33
2018-03-24T21:04:14.515Z,45.53
2018-03-24T21:06:40.978Z,45.69
2018-03-24T21:09:07.258Z,45.88
2018-03-24T21:11:33.524Z,45.77
2018-03-24T21:13:59.848Z,45.58
2018-03-24T21:16:26.222Z,45.60
2018-03-24T21:18:52.488Z,45.56
2018-03-24T21:21:18.769Z,45.49
2018-03-24T21:23:45.018Z,45.45
2018-03-24T21:26:11.273Z,45.38
2018-03-24T21:28:37.537Z,45.60
2018-03-24T21:31:03.808Z,45.46
2018-03-24T21:33:30.045Z,45.83
2018-03-24T21:35:56.324Z,45.99
2018-03-24T21:38:22.570Z,45.93
2018-03-24T21:40:48.808Z,45.58
2018-03-24T21:43:15.074Z,45.58
2018-03-24T21:45:41.314Z,45.69
2018-03-24T21:48:07.549Z,45.85
2018-03-24T21:50:33.815Z,46.22
2018-03-24T21:53:00.062Z,46.48
2018-03-24T21:55:26.304Z,46.33
2018-03-24T21:57:52.575Z,46.40
2018-03-24T22:00:18.814Z,46.46
2018-03-24T22:02:45.090Z,47.06
2018-03-24T22:05:11.356Z,46.47
2018-03-24T22:07:37.656Z,46.69
2018-03-24T22:10:03.925Z,46.88
2018-03-24T22:12:30.197Z,47.36
2018-03-24T22:14:56.485Z,47.99
2018-03-24T22:17:22.853Z,48.75
2018-03-24T22:19:49.161Z,48.87
2018-03-24T22:22:15.402Z,49.16
2018-03-24T22:24:41.641Z,49.31
2018-03-24T22:27:07.924Z,49.22
2018-03-24T22:29:34.157Z,49.26
2018-03-24T22:32:00.414Z,49.36
2018-03-24T22:34:26.731Z,49.58
2018-03-24T22:36:52.930Z,49.25
2018-03-24T22:39:19.156Z,49.61
2018-03-24T22:41:45.441Z,50.07
2018-03-24T22:44:11.676Z,50.35
2018-03-24T22:46:37.925Z,51.05
2018-03-24T22:49:04.229Z,51.33
2018-03-24T22:51:30.715Z,51.50
2018-03-24T22:53:56.945Z,51.47
2018-03-24T22:56:23.241Z,51.69
2018-03-24T22:58:49.513Z,51.38
2018-03-24T23:01:20.672Z,51.29
2018-03-24T23:03:46.944Z,51.41
2018-03-24T23:06:13.193Z,51.60
2018-03-24T23:08:39.473Z,51.12
2018-03-24T23:11:05.736Z,50.96
2018-03-24T23:13:32.043Z,50.74
2018-03-24T23:15:58.296Z,50.73
2018-03-24T23:18:24.638Z,50.63
2018-03-24T23:20:50.896Z,50.71
2018-03-24T23:23:17.249Z,50.35
2018-03-24T23:25:43.533Z,50.36
2018-03-24T23:28:09.768Z,50.07
2018-03-24T23:30:36.012Z,49.98
2018-03-24T23:33:02.268Z,50.08
2018-03-24T23:35:28.516Z,50.13
2018-03-24T23:37:54.740Z,50.22
2018-03-24T23:40:21.018Z,50.24
2018-03-24T23:42:47.498Z,50.37
2018-03-24T23:45:13.740Z,50.45
2018-03-24T23:47:40.008Z,50.20
2018-03-24T23:50:06.239Z,50.51
2018-03-24T23:52:32.519Z,50.37
2018-03-24T23:54:58.796Z,50.76
2018-03-24T23:57:25.028Z,50.88
2018-03-24T23:59:51.252Z,51.16
